Pacific Dawn — 2AGH7 — position and weather

sailwx.info

Track history (hours):
 
Tides and Currents Weather Stations Pressure Air Temp Water Temp Dewpoint Dewpoint Depression Visibility Wind Speed Wind Dir Waves Ship Positions

Pacific Dawn

Last reported at 2014-Dec-20 11:23 UTC. Time now 2014-Dec-22 17:04 UTC.
Position S 26°32' E 153°53'.

Length 245 m; draft 8.2 m.

Type: Passenger vessel. MMSI: 235059368.

Date/timePositionNaut miles runAvg speedWind from/ knotsBaromVisibWave heightAir tempDewpointWater temp
2014-Dec-20 11:23S 26°32' E 153°53'1917.4
2014-Dec-20 10:18S 26°39' E 153°33'1317.4
2014-Dec-20 09:34S 26°41' E 153°19'1312.9
2014-Dec-20 08:34S 26°50' E 153°09'1515.3
2014-Dec-20 07:33S 27°03' E 153°18'1312.6
2014-Dec-20 06:34S 27°16' E 153°17'1211.7
2014-Dec-20 05:33S 27°25' E 153°09'5 4.6
2014-Dec-20 04:33S 27°26' E 153°04'0 0.0
2014-Dec-20 03:31S 27°26' E 153°04'0 0.0
2014-Dec-20 02:31S 27°26' E 153°04'0 0.0
2014-Dec-20 01:28S 27°26' E 153°04'0 0.0
2014-Dec-20 00:31S 27°26' E 153°04'0 0.0
2014-Dec-19 23:31S 27°26' E 153°04'0 0.0
2014-Dec-19 21:31S 27°26' E 153°04'0 0.0
2014-Dec-19 20:33S 27°26' E 153°04'0 0.0
2014-Dec-19 19:30S 27°26' E 153°04'5 5.4
2014-Dec-19 18:33S 27°24' E 153°09'1211.9
2014-Dec-19 17:34S 27°15' E 153°18'1312.6
2014-Dec-19 16:33S 27°03' E 153°17'1514.6
2014-Dec-19 15:33S 26°50' E 153°09'1211.6
2014-Dec-19 14:34S 26°41' E 153°17'1817.2
2014-Dec-19 13:32S 26°34' E 153°35'1717.6
2014-Dec-19 12:34S 26°24' E 153°51'1818.3
2014-Dec-19 11:33S 26°13' E 154°07'1818.1
2014-Dec-19 10:34S 26°02' E 154°23'1918.5
2014-Dec-19 09:33S 25°51' E 154°40'  
2014-Dec-13 11:20S 26°34' E 153°38'1418.1
2014-Dec-13 10:33S 26°39' E 153°24'3511.6
2014-Dec-13 07:32S 27°14' E 153°20'1313.2
2014-Dec-13 06:33S 27°23' E 153°10'0 0.1
2014-Dec-13 05:32S 27°23' E 153°10'0 0.0
2014-Dec-13 04:32S 27°23' E 153°10'0 0.0
2014-Dec-13 03:32S 27°23' E 153°10'0 0.0
2014-Dec-13 02:32S 27°23' E 153°10'0 0.0
2014-Dec-13 01:32S 27°23' E 153°10'0 0.0
2014-Dec-13 00:32S 27°23' E 153°10'0 0.0
2014-Dec-12 23:33S 27°23' E 153°10'0 0.0
2014-Dec-12 22:33S 27°23' E 153°10'0 0.0
2014-Dec-12 21:33S 27°23' E 153°10'0 0.0
2014-Dec-12 20:33S 27°23' E 153°10'0 0.0
2014-Dec-12 19:33S 27°23' E 153°10'2 1.6
2014-Dec-12 18:33S 27°21' E 153°11'1514.7
2014-Dec-12 17:33S 27°10' E 153°21'1615.5
2014-Dec-12 16:33S 26°56' E 153°12'1212.3
2014-Dec-12 15:33S 26°44' E 153°13'1414.1
2014-Dec-12 14:33S 26°39' E 153°27'  
Track history (hours):
 
Tides and Currents Weather Stations Pressure Air Temp Water Temp Dewpoint Dewpoint Depression Visibility Wind Speed Wind Dir Waves Ship Positions

Pacific Dawn

Last reported at 2014-Dec-20 11:23 UTC. Time now 2014-Dec-22 17:04 UTC.
Position S 26°32' E 153°53'.

Length 245 m; draft 8.2 m.

Type: Passenger vessel. MMSI: 235059368.

Date/timePositionNaut miles runAvg speedWind from/ knotsBaromVisibWave heightAir tempDewpointWater temp
2014-Dec-20 11:23S 26°32' E 153°53'1917.4
2014-Dec-20 10:18S 26°39' E 153°33'1317.4
2014-Dec-20 09:34S 26°41' E 153°19'1312.9
2014-Dec-20 08:34S 26°50' E 153°09'1515.3
2014-Dec-20 07:33S 27°03' E 153°18'1312.6
2014-Dec-20 06:34S 27°16' E 153°17'1211.7
2014-Dec-20 05:33S 27°25' E 153°09'5 4.6
2014-Dec-20 04:33S 27°26' E 153°04'0 0.0
2014-Dec-20 03:31S 27°26' E 153°04'0 0.0
2014-Dec-20 02:31S 27°26' E 153°04'0 0.0
2014-Dec-20 01:28S 27°26' E 153°04'0 0.0
2014-Dec-20 00:31S 27°26' E 153°04'0 0.0
2014-Dec-19 23:31S 27°26' E 153°04'0 0.0
2014-Dec-19 21:31S 27°26' E 153°04'0 0.0
2014-Dec-19 20:33S 27°26' E 153°04'0 0.0
2014-Dec-19 19:30S 27°26' E 153°04'5 5.4
2014-Dec-19 18:33S 27°24' E 153°09'1211.9
2014-Dec-19 17:34S 27°15' E 153°18'1312.6
2014-Dec-19 16:33S 27°03' E 153°17'1514.6
2014-Dec-19 15:33S 26°50' E 153°09'1211.6
2014-Dec-19 14:34S 26°41' E 153°17'1817.2
2014-Dec-19 13:32S 26°34' E 153°35'1717.6
2014-Dec-19 12:34S 26°24' E 153°51'1818.3
2014-Dec-19 11:33S 26°13' E 154°07'1818.1
2014-Dec-19 10:34S 26°02' E 154°23'1918.5
2014-Dec-19 09:33S 25°51' E 154°40'  
2014-Dec-13 11:20S 26°34' E 153°38'1418.1
2014-Dec-13 10:33S 26°39' E 153°24'3511.6
2014-Dec-13 07:32S 27°14' E 153°20'1313.2
2014-Dec-13 06:33S 27°23' E 153°10'0 0.1
2014-Dec-13 05:32S 27°23' E 153°10'0 0.0
2014-Dec-13 04:32S 27°23' E 153°10'0 0.0
2014-Dec-13 03:32S 27°23' E 153°10'0 0.0
2014-Dec-13 02:32S 27°23' E 153°10'0 0.0
2014-Dec-13 01:32S 27°23' E 153°10'0 0.0
2014-Dec-13 00:32S 27°23' E 153°10'0 0.0
2014-Dec-12 23:33S 27°23' E 153°10'0 0.0
2014-Dec-12 22:33S 27°23' E 153°10'0 0.0
2014-Dec-12 21:33S 27°23' E 153°10'0 0.0
2014-Dec-12 20:33S 27°23' E 153°10'0 0.0
2014-Dec-12 19:33S 27°23' E 153°10'2 1.6
2014-Dec-12 18:33S 27°21' E 153°11'1514.7
2014-Dec-12 17:33S 27°10' E 153°21'1615.5
2014-Dec-12 16:33S 26°56' E 153°12'1212.3
2014-Dec-12 15:33S 26°44' E 153°13'1414.1
2014-Dec-12 14:33S 26°39' E 153°27'  

Dump ship's entire track history